Time;durP1;ratioP1;P1;durP2;ratioP2;P2;SDS_P1;SDS_P2;PMS_P1;PMS_P2;Temp;Humidity;BMP_temperature;BMP_pressure;BME280_temperature;BME280_humidity;BME280_pressure;Samples;Min_cycle;Max_cycle;Signal;HPM_P1;HPM_P2
2022/05/23 00:01:56;;;;;;;4.03;2.20;;;;;;;14.95;59.77;100042.34;5008396;28;20068;-65
2022/05/23 00:04:22;;;;;;;6.57;2.17;;;;;;;14.94;59.67;100048.78;5008175;28;20068;-65
2022/05/23 00:06:51;;;;;;;4.30;2.00;;;;;;;14.87;59.61;100041.50;5007927;28;20033;-65
2022/05/23 00:09:17;;;;;;;4.90;1.80;;;;;;;14.88;59.56;100046.75;5007982;28;20092;-64
2022/05/23 00:11:43;;;;;;;6.00;2.15;;;;;;;14.82;59.95;100039.31;5008133;28;20021;-65
2022/05/23 00:14:09;;;;;;;3.00;1.98;;;;;;;14.82;60.31;100041.16;5008271;28;20371;-65
2022/05/23 00:16:40;;;;;;;4.07;2.30;;;;;;;14.80;60.16;100040.50;5022985;28;20029;-65
2022/05/23 00:19:09;;;;;;;7.57;2.00;;;;;;;14.79;60.01;100044.19;5007929;28;20026;-65
2022/05/23 00:21:35;;;;;;;7.82;2.35;;;;;;;14.74;59.99;100038.47;5043028;28;20034;-65
2022/05/23 00:24:00;;;;;;;5.78;2.10;;;;;;;14.72;60.20;100045.88;5034657;28;20072;-65
2022/05/23 00:26:26;;;;;;;6.63;2.40;;;;;;;14.71;60.26;100050.44;5063388;28;20136;-65
2022/05/23 00:28:52;;;;;;;4.30;1.95;;;;;;;14.66;60.95;100043.84;5046991;28;20389;-66
2022/05/23 00:31:18;;;;;;;7.55;2.38;;;;;;;14.59;60.80;100046.38;5031781;28;20041;-65
2022/05/23 00:36:29;;;;;;;7.57;2.97;;;;;;;14.46;61.61;100032.53;5017749;28;20036;-65
2022/05/23 00:38:55;;;;;;;5.97;2.40;;;;;;;14.42;61.97;100035.72;5046770;28;20482;-65
2022/05/23 00:44:31;;;;;;;6.28;2.50;;;;;;;14.35;62.76;100043.63;5031392;28;20448;-65
2022/05/23 00:46:57;;;;;;;7.35;2.50;;;;;;;14.30;62.62;100043.28;5031206;28;20041;-64
2022/05/23 00:49:41;;;;;;;8.60;2.70;;;;;;;14.24;62.90;100037.69;5063097;28;20680;-65
2022/05/23 00:52:12;;;;;;;5.57;2.95;;;;;;;14.19;63.00;100040.03;5046724;28;20123;-65
2022/05/23 00:54:40;;;;;;;4.28;2.60;;;;;;;14.17;63.76;100042.03;5028852;28;20144;-64
2022/05/23 00:57:07;;;;;;;6.43;2.42;;;;;;;14.08;63.42;100043.84;5025493;28;20114;-65
2022/05/23 00:59:34;;;;;;;3.05;2.47;;;;;;;14.08;63.61;100053.78;5011224;28;20026;-64
2022/05/23 01:02:03;;;;;;;11.63;2.88;;;;;;;13.92;63.65;100034.84;5011505;28;20041;-64
2022/05/23 01:04:30;;;;;;;7.72;2.95;;;;;;;13.93;63.89;100050.03;5011327;28;20104;-65
2022/05/23 01:06:56;;;;;;;17.83;4.57;;;;;;;13.75;64.76;100028.56;5011254;28;20198;-65
2022/05/23 01:09:23;;;;;;;25.38;6.32;;;;;;;13.74;64.54;100051.16;5011221;28;20124;-65
2022/05/23 01:11:49;;;;;;;18.05;4.72;;;;;;;13.62;64.87;100023.63;5011129;28;20034;-65
2022/05/23 01:14:14;;;;;;;19.38;5.13;;;;;;;13.58;64.81;100033.03;5009794;28;20041;-65
2022/05/23 01:16:40;;;;;;;14.25;4.35;;;;;;;13.58;65.21;100045.69;5011114;28;20079;-65
2022/05/23 01:19:06;;;;;;;12.25;4.28;;;;;;;13.53;64.91;100045.28;5011090;28;20029;-65
2022/05/23 01:21:37;;;;;;;13.43;4.40;;;;;;;13.49;65.88;100034.00;5021855;28;20458;-65
2022/05/23 01:24:06;;;;;;;9.45;3.40;;;;;;;13.47;65.32;100035.16;5010627;28;20393;-65
2022/05/23 01:26:33;;;;;;;15.13;4.28;;;;;;;13.45;64.81;100031.78;5027917;28;20813;-65
2022/05/23 01:29:00;;;;;;;8.73;2.92;;;;;;;13.40;65.21;100029.56;5009783;28;20053;-64
2022/05/23 01:31:25;;;;;;;5.10;2.72;;;;;;;13.40;65.14;100044.88;5010453;28;20477;-65
2022/05/23 01:33:51;;;;;;;9.20;2.90;;;;;;;13.42;65.63;100043.72;5010660;28;20104;-64
2022/05/23 01:36:16;;;;;;;6.18;3.00;;;;;;;13.37;65.12;100042.50;5010285;28;20022;-64
2022/05/23 01:38:42;;;;;;;8.43;2.58;;;;;;;13.37;65.10;100045.19;5010230;28;20018;-64
2022/05/23 01:41:08;;;;;;;5.93;3.13;;;;;;;13.34;65.34;100042.81;5010236;28;20037;-64
2022/05/23 01:43:34;;;;;;;8.00;3.40;;;;;;;13.26;65.76;100029.31;5010031;28;20083;-63
2022/05/23 01:46:00;;;;;;;7.32;3.30;;;;;;;13.26;65.67;100043.59;5025510;28;20030;-63
2022/05/23 01:48:26;;;;;;;6.97;2.67;;;;;;;13.26;65.69;100045.47;5009989;28;20119;-64
2022/05/23 01:50:52;;;;;;;8.00;2.88;;;;;;;13.16;65.74;100031.28;5008283;28;20370;-65
2022/05/23 01:53:18;;;;;;;7.22;3.00;;;;;;;13.20;65.71;100044.25;5010961;28;20087;-64
2022/05/23 01:55:43;;;;;;;4.43;2.70;;;;;;;13.16;65.62;100045.56;5025567;28;20119;-64
2022/05/23 01:58:09;;;;;;;5.75;2.55;;;;;;;13.07;66.52;100032.22;5029672;28;21428;-64
2022/05/23 02:03:20;;;;;;;4.20;2.45;;;;;;;13.12;66.97;100046.88;5029644;28;20135;-64
2022/05/23 02:05:46;;;;;;;4.97;2.33;;;;;;;13.12;66.98;100046.88;5031415;28;20061;-64
2022/05/23 02:08:11;;;;;;;4.53;2.60;;;;;;;13.05;67.51;100043.13;5029275;28;20122;-63
2022/05/23 02:10:37;;;;;;;4.15;2.50;;;;;;;13.04;67.70;100032.53;5031217;28;20851;-64
2022/05/23 02:13:03;;;;;;;10.55;2.92;;;;;;;13.11;66.95;100039.81;5027794;28;20038;-64
2022/05/23 02:15:31;;;;;;;9.57;3.08;;;;;;;13.13;67.69;100043.19;5029176;28;20304;-63
2022/05/23 02:18:01;;;;;;;7.25;3.10;;;;;;;13.10;68.40;100040.81;5041368;28;20113;-64
2022/05/23 02:20:28;;;;;;;5.60;2.80;;;;;;;13.08;67.63;100037.44;5027235;28;20036;-64
2022/05/23 02:22:53;;;;;;;5.68;2.78;;;;;;;13.04;67.34;100037.91;5029491;28;20037;-64
2022/05/23 02:25:19;;;;;;;3.05;2.40;;;;;;;13.00;67.81;100040.06;5029871;28;20039;-64
2022/05/23 02:27:45;;;;;;;4.07;2.85;;;;;;;12.95;67.66;100038.81;5029471;28;20390;-63
2022/05/23 02:30:12;;;;;;;4.97;2.50;;;;;;;12.85;67.46;100021.91;5029534;28;20036;-63
2022/05/23 02:32:37;;;;;;;5.85;2.88;;;;;;;12.81;67.63;100031.31;5044503;28;20039;-64
2022/05/23 02:35:03;;;;;;;4.35;2.88;;;;;;;12.79;68.43;100035.97;5029397;28;20025;-64
2022/05/23 02:37:28;;;;;;;7.30;3.00;;;;;;;12.67;67.95;100024.63;5031804;28;20038;-64
2022/05/23 02:39:54;;;;;;;6.28;2.88;;;;;;;12.66;68.57;100025.63;5029264;28;20022;-63
2022/05/23 02:42:19;;;;;;;6.05;3.25;;;;;;;12.62;68.96;100034.16;5029169;28;20030;-63
2022/05/23 02:44:46;;;;;;;5.68;3.10;;;;;;;12.58;69.65;100020.16;5029024;28;20394;-64
2022/05/23 02:47:11;;;;;;;6.57;3.58;;;;;;;12.59;69.24;100024.56;5032497;28;20509;-64
2022/05/23 02:49:37;;;;;;;6.93;3.42;;;;;;;12.56;69.57;100019.50;5048886;28;20025;-64
2022/05/23 02:52:02;;;;;;;6.90;3.30;;;;;;;12.54;68.95;100005.34;5049102;28;20358;-64
2022/05/23 02:54:28;;;;;;;14.10;2.95;;;;;;;12.52;69.20;100004.66;5048641;28;20488;-65
2022/05/23 02:56:54;;;;;;;4.18;2.80;;;;;;;12.44;68.59;99990.28;5047302;28;20040;-65
2022/05/23 02:59:20;;;;;;;3.55;2.78;;;;;;;12.48;68.92;100002.44;5049210;28;20025;-65
2022/05/23 03:04:30;;;;;;;10.27;3.28;;;;;;;12.37;69.91;99999.97;5048733;28;20040;-65
2022/05/23 03:06:57;;;;;;;6.63;3.20;;;;;;;12.48;70.40;100021.25;5048938;28;20497;-65
2022/05/23 03:09:22;;;;;;;5.78;3.13;;;;;;;12.44;71.94;100009.94;5048965;28;20107;-65
2022/05/23 03:11:48;;;;;;;6.68;3.55;;;;;;;12.47;73.28;100009.66;5048817;28;20120;-65
2022/05/23 03:14:13;;;;;;;14.75;3.28;;;;;;;12.51;73.34;100012.88;5048750;28;20031;-65
2022/05/23 03:16:39;;;;;;;6.82;3.80;;;;;;;12.56;73.66;100007.88;5046653;28;20036;-65
2022/05/23 03:19:04;;;;;;;11.48;3.95;;;;;;;12.57;73.22;100023.00;5057931;28;20028;-65
2022/05/23 03:27:00;;;;;;;12.15;3.05;;;;;;;12.52;71.64;100042.31;5047784;28;20055;-65
2022/05/23 03:29:30;;;;;;;9.30;3.30;;;;;;;12.52;71.66;100042.31;5032723;28;20409;-65
2022/05/23 03:31:56;;;;;;;5.95;3.03;;;;;;;12.53;71.39;100051.22;5048207;28;20048;-64
2022/05/23 03:34:21;;;;;;;6.38;3.10;;;;;;;12.45;70.96;100035.84;5048664;28;20028;-64
2022/05/23 03:36:47;;;;;;;4.28;3.03;;;;;;;12.45;71.12;100041.22;5031178;28;20480;-65
2022/05/23 03:39:12;;;;;;;7.78;3.10;;;;;;;12.49;71.53;100048.00;5028427;28;20014;-66
2022/05/23 03:41:38;;;;;;;6.00;3.60;;;;;;;12.52;72.22;100044.16;5028709;28;20132;-65
2022/05/23 03:44:07;;;;;;;6.07;3.45;;;;;;;12.55;72.02;100042.03;5028724;28;20160;-65
2022/05/23 03:46:34;;;;;;;8.48;3.55;;;;;;;12.60;72.71;100037.00;5030101;28;20287;-65
2022/05/23 03:49:01;;;;;;;7.53;2.78;;;;;;;12.70;71.89;100031.53;5048210;28;20025;-65
2022/05/23 03:51:27;;;;;;;5.40;3.30;;;;;;;12.81;71.30;100042.06;5045489;28;20074;-65
2022/05/23 03:53:53;;;;;;;9.35;3.47;;;;;;;12.90;69.86;100043.84;5027982;28;20026;-66
2022/05/23 03:56:18;;;;;;;14.23;3.13;;;;;;;12.98;69.68;100050.13;5023847;28;20045;-65
2022/05/23 03:58:44;;;;;;;8.73;3.47;;;;;;;13.06;69.48;100044.00;5008245;28;20434;-65
2022/05/23 04:01:13;;;;;;;29.13;4.28;;;;;;;13.18;69.64;100048.09;5008534;28;20061;-65
2022/05/23 04:03:39;;;;;;;45.05;5.93;;;;;;;13.32;68.83;100044.84;5017644;28;20048;-65
2022/05/23 04:06:05;;;;;;;34.17;5.15;;;;;;;13.42;68.83;100041.03;5043046;28;20049;-66
2022/05/23 04:08:30;;;;;;;16.75;3.63;;;;;;;13.47;68.28;100030.63;5007887;28;20022;-64
2022/05/23 04:10:56;;;;;;;15.63;3.60;;;;;;;13.67;67.34;100042.00;5008204;28;20041;-65
2022/05/23 04:13:22;;;;;;;10.82;3.55;;;;;;;13.80;66.26;100036.19;5008284;28;20500;-65
2022/05/23 04:15:48;;;;;;;8.85;3.28;;;;;;;14.00;65.13;100041.16;5008026;28;20064;-65
2022/05/23 04:18:13;;;;;;;8.05;4.20;;;;;;;14.17;65.35;100039.31;5008678;28;20099;-66
2022/05/23 04:20:39;;;;;;;8.30;3.42;;;;;;;14.38;64.51;100045.16;5007848;28;20038;-64
2022/05/23 04:23:08;;;;;;;11.60;3.17;;;;;;;14.54;64.50;100040.63;5007953;28;20030;-64
2022/05/23 04:25:37;;;;;;;12.48;3.28;;;;;;;14.76;63.43;100031.03;5023783;28;20037;-65
2022/05/23 04:28:03;;;;;;;11.23;4.22;;;;;;;14.89;63.10;100015.16;5009785;28;20034;-64
2022/05/23 04:30:29;;;;;;;19.15;4.30;;;;;;;15.11;62.08;100026.13;5007866;28;20375;-64
2022/05/23 04:35:41;;;;;;;18.90;4.18;;;;;;;15.43;61.42;100009.91;5023827;28;20444;-69
2022/05/23 04:38:06;;;;;;;14.68;4.50;;;;;;;15.70;61.47;100027.53;5024556;28;20080;-65
2022/05/23 04:40:32;;;;;;;23.30;5.15;;;;;;;15.76;61.65;100006.06;5026809;28;20683;-66
2022/05/23 04:42:57;;;;;;;14.70;4.97;;;;;;;16.02;61.21;100015.75;5013831;28;20121;-65
2022/05/23 04:45:23;;;;;;;12.77;4.28;;;;;;;16.18;60.65;100019.19;5022568;28;20025;-65
2022/05/23 04:50:33;;;;;;;12.63;4.20;;;;;;;16.48;59.45;100015.66;5011197;28;20044;-65
2022/05/23 04:53:01;;;;;;;17.73;3.60;;;;;;;16.64;59.91;100014.72;5038768;28;20038;-65
2022/05/23 04:55:27;;;;;;;5.65;2.90;;;;;;;16.70;58.81;99998.56;5039825;28;20095;-66
2022/05/23 04:57:54;;;;;;;4.47;2.08;;;;;;;17.07;55.93;100019.44;5034868;28;20063;-66
2022/05/23 05:00:21;;;;;;;4.18;1.60;;;;;;;17.31;54.95;100022.75;5034117;28;20029;-65
2022/05/23 05:02:48;;;;;;;6.90;1.80;;;;;;;17.52;53.20;100022.91;5028761;28;21003;-66
2022/05/23 05:05:15;;;;;;;4.32;1.90;;;;;;;17.75;51.58;100020.94;5041405;28;20032;-65
2022/05/23 05:07:41;;;;;;;2.92;1.75;;;;;;;17.96;51.78;100021.00;5030346;28;20493;-66
2022/05/23 05:10:08;;;;;;;4.07;1.55;;;;;;;18.25;50.41;100041.00;5029640;28;20025;-66
2022/05/23 05:12:33;;;;;;;5.53;1.70;;;;;;;18.44;50.27;100030.38;5057294;28;20033;-66
2022/05/23 05:14:59;;;;;;;8.15;2.17;;;;;;;18.73;49.36;100041.16;5050370;28;20033;-66
2022/05/23 05:17:25;;;;;;;9.02;2.28;;;;;;;18.95;48.92;100047.41;5045208;28;20033;-66
2022/05/23 05:19:51;;;;;;;5.10;1.67;;;;;;;19.14;48.73;100036.75;5039991;28;20056;-66
2022/05/23 05:22:17;;;;;;;6.70;2.03;;;;;;;19.27;47.50;100041.47;5040866;28;20740;-66
2022/05/23 05:24:42;;;;;;;5.35;1.98;;;;;;;19.40;47.66;100053.31;5035449;28;20076;-66
2022/05/23 05:27:10;;;;;;;5.90;2.20;;;;;;;19.46;46.73;100041.63;5045752;28;20118;-65
2022/05/23 05:29:36;;;;;;;2.92;1.30;;;;;;;19.65;47.28;100042.81;5049926;28;20061;-65
2022/05/23 05:32:21;;;;;;;5.63;1.75;;;;;;;19.78;45.79;100040.16;5049813;28;20064;-65
2022/05/23 05:35:19;;;;;;;5.22;1.73;;;;;;;19.85;44.65;100049.22;5038568;28;20591;-65
2022/05/23 05:37:54;;;;;;;3.90;1.55;;;;;;;19.86;45.13;100046.28;5035884;28;20496;-66
2022/05/23 05:40:23;;;;;;;10.07;1.98;;;;;;;19.81;44.41;100037.03;5041514;28;20036;-66
2022/05/23 05:42:52;;;;;;;8.45;1.98;;;;;;;19.82;44.72;100042.28;5040151;28;20036;-66
2022/05/23 05:45:24;;;;;;;6.97;1.85;;;;;;;19.86;45.07;100032.66;5044953;28;20457;-65
2022/05/23 05:47:50;;;;;;;7.25;1.80;;;;;;;20.03;44.71;100044.91;5032626;28;20048;-65
2022/05/23 05:50:29;;;;;;;5.45;1.55;;;;;;;20.13;44.32;100045.41;5032197;28;20575;-65
2022/05/23 05:53:01;;;;;;;3.80;1.15;;;;;;;20.28;44.30;100044.44;5032415;28;20045;-65
2022/05/23 05:55:27;;;;;;;6.18;1.65;;;;;;;20.53;43.86;100042.84;5029334;28;20052;-66
2022/05/23 05:57:53;;;;;;;5.22;1.33;;;;;;;20.69;43.08;100035.13;5029526;28;20033;-66
2022/05/23 06:00:19;;;;;;;5.45;1.85;;;;;;;20.80;42.74;100042.69;5058812;28;20551;-66
2022/05/23 06:02:45;;;;;;;11.90;1.98;;;;;;;20.92;42.44;100042.94;5027179;28;20525;-66
2022/05/23 06:05:11;;;;;;;5.28;1.65;;;;;;;20.96;42.64;100034.16;5013695;28;20108;-66
2022/05/23 06:12:59;;;;;;;8.82;1.83;;;;;;;21.08;42.54;100035.22;5013942;28;20030;-65
2022/05/23 06:15:25;;;;;;;5.20;1.48;;;;;;;21.13;41.93;100029.97;5010015;28;20037;-65
2022/05/23 06:17:52;;;;;;;7.63;1.63;;;;;;;21.18;41.73;100040.28;5039559;28;20041;-65
2022/05/23 06:20:18;;;;;;;8.95;1.95;;;;;;;21.23;41.74;100043.19;5027531;28;20060;-65
2022/05/23 06:22:44;;;;;;;5.90;1.70;;;;;;;21.30;41.90;100039.41;5029077;28;20041;-65
2022/05/23 06:25:10;;;;;;;6.15;1.40;;;;;;;21.33;41.32;100030.81;5019918;28;20025;-65
2022/05/23 06:27:36;;;;;;;4.88;1.15;;;;;;;21.49;41.73;100035.00;5017392;28;20060;-65
2022/05/23 06:30:05;;;;;;;3.13;1.10;;;;;;;21.63;41.23;100033.91;5010487;28;20061;-66
2022/05/23 06:32:30;;;;;;;4.22;1.10;;;;;;;21.67;41.08;100029.72;5029392;28;20029;-65
2022/05/23 06:34:56;;;;;;;2.05;0.85;;;;;;;21.84;40.68;100047.38;5021666;28;20029;-65
2022/05/23 06:37:22;;;;;;;1.77;1.10;;;;;;;21.89;40.41;100047.53;5024350;28;20036;-65
2022/05/23 06:39:48;;;;;;;4.30;1.10;;;;;;;21.94;40.02;100047.75;5024590;28;20079;-65
2022/05/23 06:42:13;;;;;;;4.57;1.40;;;;;;;22.04;39.72;100056.34;5022435;28;20037;-65
2022/05/23 06:44:39;;;;;;;4.28;1.10;;;;;;;21.98;39.38;100057.19;5024525;28;20029;-65
2022/05/23 06:47:05;;;;;;;3.70;1.30;;;;;;;22.00;39.43;100055.09;5022322;28;20030;-65
2022/05/23 06:49:30;;;;;;;4.95;1.13;;;;;;;22.00;39.12;100046.91;5023592;28;20128;-66
2022/05/23 06:51:56;;;;;;;5.68;1.38;;;;;;;21.96;39.49;100043.75;5028803;28;20432;-66
2022/05/23 06:54:23;;;;;;;2.58;1.08;;;;;;;22.04;39.42;100051.72;5028543;28;20160;-66
2022/05/23 06:56:49;;;;;;;2.88;1.08;;;;;;;22.15;39.45;100045.59;5025462;28;20068;-66
2022/05/23 06:59:16;;;;;;;1.67;1.02;;;;;;;22.26;39.53;100052.28;5019567;28;20037;-66
2022/05/23 07:01:42;;;;;;;1.77;1.00;;;;;;;22.34;38.93;100052.88;5023767;28;20029;-66
2022/05/23 07:04:07;;;;;;;3.70;1.52;;;;;;;22.30;38.73;100037.97;5011853;28;20037;-66
2022/05/23 07:12:23;;;;;;;4.28;1.13;;;;;;;22.50;38.19;100021.47;5008754;28;20048;-66
2022/05/23 07:14:49;;;;;;;4.00;1.40;;;;;;;22.70;38.37;100032.31;5034693;28;20712;-66
2022/05/23 07:17:15;;;;;;;4.30;1.50;;;;;;;22.78;38.36;100027.44;5008716;28;20397;-66
2022/05/23 07:19:41;;;;;;;5.72;1.50;;;;;;;22.89;38.12;100029.44;5008365;28;20018;-66
2022/05/23 07:22:08;;;;;;;7.10;1.83;;;;;;;23.03;38.12;100019.25;5008590;28;20029;-66
2022/05/23 07:24:34;;;;;;;3.25;1.00;;;;;;;23.07;37.82;100028.69;5009657;28;20036;-67
2022/05/23 07:27:00;;;;;;;5.03;1.67;;;;;;;23.03;37.22;100016.53;5028088;28;20389;-66
2022/05/23 07:29:26;;;;;;;3.22;1.30;;;;;;;23.03;37.45;100020.09;5023135;28;20045;-66
2022/05/23 07:31:52;;;;;;;6.65;2.03;;;;;;;23.07;37.30;100017.75;5021276;28;20486;-66
2022/05/23 07:34:18;;;;;;;3.35;1.23;;;;;;;23.19;37.30;100022.28;5009641;28;20018;-66
2022/05/23 07:36:45;;;;;;;3.25;1.13;;;;;;;23.22;37.31;100005.44;5008106;28;20036;-66
2022/05/23 07:39:13;;;;;;;2.10;1.13;;;;;;;23.31;37.17;100004.09;5025374;28;20373;-66
2022/05/23 07:41:40;;;;;;;1.95;1.20;;;;;;;23.41;36.89;99998.94;5015792;28;20038;-66
2022/05/23 07:44:11;;;;;;;2.67;0.95;;;;;;;23.57;37.09;100011.25;5030589;28;20064;-66
2022/05/23 07:46:37;;;;;;;4.18;0.90;;;;;;;23.64;36.48;99993.66;5009360;28;20026;-66
2022/05/23 07:49:04;;;;;;;2.53;1.38;;;;;;;23.78;36.73;100006.16;5018450;28;20065;-66
2022/05/23 07:51:32;;;;;;;6.03;1.70;;;;;;;23.87;36.11;100003.97;5020797;28;20026;-66
2022/05/23 08:02:12;;;;;;;6.97;1.40;;;;;;;23.90;35.54;99993.38;5008016;28;19924;-64
2022/05/23 08:04:38;;;;;;;5.50;1.00;;;;;;;23.99;35.64;99994.78;5010225;28;20038;-65
2022/05/23 08:07:09;;;;;;;2.65;1.27;;;;;;;24.14;35.31;99989.75;5006438;28;20053;-65
2022/05/23 08:09:35;;;;;;;3.17;1.50;;;;;;;24.21;35.17;99985.00;5007502;28;20370;-65
2022/05/23 08:12:00;;;;;;;1.75;1.13;;;;;;;24.31;35.40;99984.44;5012014;28;20041;-65
2022/05/23 08:14:26;;;;;;;5.65;1.13;;;;;;;24.40;35.27;99983.91;5028650;28;20093;-65
2022/05/23 08:16:52;;;;;;;5.15;1.48;;;;;;;24.43;34.90;99977.13;5009291;28;20029;-65
2022/05/23 08:19:17;;;;;;;6.55;1.17;;;;;;;24.42;34.63;99981.78;5022267;28;20022;-65
2022/05/23 08:21:47;;;;;;;6.68;1.10;;;;;;;24.40;34.95;99981.19;5008374;28;20096;-65
2022/05/23 08:24:14;;;;;;;4.45;1.60;;;;;;;24.38;34.86;99969.59;5010459;28;20028;-65
2022/05/23 08:26:39;;;;;;;2.42;1.30;;;;;;;24.49;35.00;99978.94;5019803;28;20029;-65
2022/05/23 08:29:05;;;;;;;4.68;1.33;;;;;;;24.56;34.59;99978.84;5032882;28;20835;-65
2022/05/23 08:31:30;;;;;;;2.63;1.00;;;;;;;24.65;34.31;99974.72;5012187;28;20084;-66
2022/05/23 08:33:56;;;;;;;2.20;0.70;;;;;;;24.79;34.00;99981.72;5031490;28;20490;-65
2022/05/23 08:36:21;;;;;;;2.05;1.08;;;;;;;24.87;33.63;99976.72;5007182;28;20096;-66
2022/05/23 08:38:47;;;;;;;4.35;1.30;;;;;;;24.84;33.62;99985.41;5012344;28;20033;-66
2022/05/23 08:41:15;;;;;;;7.72;1.42;;;;;;;24.82;33.41;99983.97;5033349;28;20030;-65
2022/05/23 08:44:12;;;;;;;4.68;1.10;;;;;;;24.81;33.39;99976.81;5014371;28;20041;-65
2022/05/23 08:47:30;;;;;;;4.20;1.30;;;;;;;24.82;33.53;99971.09;5023613;28;20021;-66
2022/05/23 08:50:11;;;;;;;6.10;1.13;;;;;;;24.85;33.17;99975.28;5008136;28;20104;-65
2022/05/23 08:52:49;;;;;;;4.63;1.20;;;;;;;24.77;33.35;99962.72;5018711;28;20041;-65
2022/05/23 08:55:30;;;;;;;3.42;1.20;;;;;;;24.88;33.23;99969.28;5025573;28;20486;-66
2022/05/23 08:58:18;;;;;;;10.27;1.23;;;;;;;24.88;33.65;99961.06;5016834;28;20033;-66
2022/05/23 09:00:52;;;;;;;3.55;1.23;;;;;;;24.91;33.71;99960.59;5021454;28;20029;-65
2022/05/23 09:03:25;;;;;;;5.45;1.17;;;;;;;24.93;33.56;99955.72;5015210;28;20137;-66
2022/05/23 09:06:29;;;;;;;4.03;1.20;;;;;;;25.01;33.25;99950.72;5008829;28;20037;-66
2022/05/23 09:09:07;;;;;;;5.47;1.40;;;;;;;25.07;33.01;99937.94;5013779;28;20048;-66
2022/05/23 09:11:38;;;;;;;1.60;0.90;;;;;;;25.14;32.71;99941.41;5019938;28;20065;-65
2022/05/23 09:14:06;;;;;;;3.13;1.25;;;;;;;25.23;32.92;99931.75;5029811;28;20036;-66
2022/05/23 09:16:54;;;;;;;3.75;1.20;;;;;;;25.30;32.61;99918.72;5016807;28;20030;-66
2022/05/23 09:19:23;;;;;;;2.20;1.02;;;;;;;25.36;32.28;99926.91;5020958;28;20132;-66
2022/05/23 09:24:43;;;;;;;6.85;1.23;;;;;;;25.45;31.90;99925.47;5024438;28;20519;-66
2022/05/23 09:27:18;;;;;;;4.72;1.30;;;;;;;25.45;31.89;99924.63;5027988;28;20037;-66
2022/05/23 09:29:50;;;;;;;5.03;0.90;;;;;;;25.41;32.20;99926.19;5027813;28;20040;-65
2022/05/23 09:32:19;;;;;;;8.70;1.73;;;;;;;25.36;31.81;99918.66;5029262;28;20465;-66
2022/05/23 09:34:49;;;;;;;4.30;1.67;;;;;;;25.38;31.58;99921.16;5016861;28;20473;-65
2022/05/23 09:37:38;;;;;;;3.88;1.10;;;;;;;25.38;31.99;99921.16;5022085;28;20093;-65
2022/05/23 09:40:05;;;;;;;3.00;0.80;;;;;;;25.40;32.26;99914.34;5022763;28;20103;-66
2022/05/23 09:48:22;;;;;;;3.63;1.15;;;;;;;25.56;31.63;99927.34;5011182;28;20500;-65
2022/05/23 09:51:00;;;;;;;1.95;1.08;;;;;;;25.56;30.87;99929.25;5027854;28;20025;-65
2022/05/23 09:53:31;;;;;;;7.10;1.45;;;;;;;25.49;30.94;99923.91;5009120;28;20032;-66
2022/05/23 09:56:21;;;;;;;1.95;0.95;;;;;;;25.55;30.97;99919.34;5040631;28;20046;-65
2022/05/23 09:58:47;;;;;;;4.10;1.20;;;;;;;25.50;31.02;99919.25;5041252;28;20032;-65
2022/05/23 10:01:25;;;;;;;1.83;1.00;;;;;;;25.46;30.64;99907.06;5048012;28;20028;-65
2022/05/23 10:03:51;;;;;;;5.72;1.10;;;;;;;25.46;30.72;99912.56;5049394;28;20491;-65
2022/05/23 10:06:17;;;;;;;1.90;0.90;;;;;;;25.52;30.92;99911.59;5034218;28;20041;-66
2022/05/23 10:08:48;;;;;;;4.47;1.02;;;;;;;25.50;31.18;99920.06;5041563;28;20033;-66
2022/05/23 10:11:28;;;;;;;2.13;0.90;;;;;;;25.52;31.05;99911.59;5035769;28;20039;-66
2022/05/23 10:13:57;;;;;;;3.78;1.30;;;;;;;25.39;30.72;99898.13;5049242;28;20096;-65
2022/05/23 10:16:28;;;;;;;4.35;1.20;;;;;;;25.45;31.11;99909.00;5049155;28;20063;-66
2022/05/23 10:19:03;;;;;;;2.50;0.90;;;;;;;25.47;30.70;99911.50;5030102;28;20473;-65
2022/05/23 10:21:43;;;;;;;4.47;1.20;;;;;;;25.49;30.66;99903.84;5028988;28;20025;-66
2022/05/23 10:24:27;;;;;;;2.17;0.82;;;;;;;25.51;30.36;99901.69;5029511;28;20029;-66
2022/05/23 10:27:19;;;;;;;1.95;0.98;;;;;;;25.57;30.46;99892.50;5043840;28;20388;-65
2022/05/23 10:30:06;;;;;;;4.65;1.20;;;;;;;25.59;30.44;99902.16;5048763;28;20021;-65
2022/05/23 10:32:34;;;;;;;4.72;1.17;;;;;;;25.60;30.50;99903.81;5033584;28;20037;-65
2022/05/23 10:35:36;;;;;;;2.17;1.30;;;;;;;25.62;30.66;99900.81;5028946;28;20029;-65
2022/05/23 10:43:56;;;;;;;3.55;1.40;;;;;;;25.61;29.91;99905.50;5048626;28;20136;-65
2022/05/23 10:46:22;;;;;;;4.13;1.00;;;;;;;25.56;30.06;99904.53;5048515;28;20020;-66
2022/05/23 10:48:56;;;;;;;2.35;0.95;;;;;;;25.58;29.97;99900.50;5044050;28;20116;-66
2022/05/23 10:51:42;;;;;;;2.25;1.10;;;;;;;25.57;29.70;99889.75;5028590;28;20399;-66
2022/05/23 10:54:27;;;;;;;2.08;1.02;;;;;;;25.59;29.75;99898.56;5028659;28;20518;-65
2022/05/23 10:57:33;;;;;;;3.65;1.05;;;;;;;25.61;29.96;99885.44;5028566;28;20095;-65
2022/05/23 11:00:13;;;;;;;5.53;1.27;;;;;;;25.69;29.43;99893.28;5010609;28;20037;-66
2022/05/23 11:02:41;;;;;;;7.55;1.10;;;;;;;25.68;28.50;99897.13;5028657;28;20277;-66
2022/05/23 11:05:15;;;;;;;2.42;0.82;;;;;;;25.46;29.34;99885.09;5043387;28;20120;-66
2022/05/23 11:08:05;;;;;;;9.60;1.10;;;;;;;25.37;29.36;99884.63;5028089;28;20048;-65
2022/05/23 11:10:36;;;;;;;4.28;1.27;;;;;;;25.46;29.35;99883.19;5028116;28;20420;-66
2022/05/23 11:13:22;;;;;;;3.75;1.15;;;;;;;25.46;29.37;99879.59;5028174;28;20465;-65
2022/05/23 11:16:08;;;;;;;2.38;0.88;;;;;;;25.41;29.36;99874.81;5043468;28;20134;-66
2022/05/23 11:19:12;;;;;;;3.08;1.27;;;;;;;25.41;29.16;99871.25;5023442;28;20112;-66
2022/05/23 11:22:09;;;;;;;3.70;0.95;;;;;;;25.37;29.16;99867.34;5032772;28;20037;-65
2022/05/23 11:25:06;;;;;;;2.95;1.15;;;;;;;25.39;29.38;99862.41;5043227;28;20029;-66
2022/05/23 11:33:49;;;;;;;7.18;1.38;;;;;;;25.26;29.56;99830.53;5008231;28;20119;-65
2022/05/23 11:36:24;;;;;;;5.60;1.10;;;;;;;25.25;30.09;99850.00;5008386;28;20022;-67
2022/05/23 11:38:51;;;;;;;4.70;1.10;;;;;;;25.11;30.25;99834.88;5008212;28;20025;-66
2022/05/23 11:41:41;;;;;;;2.20;1.00;;;;;;;25.20;30.40;99849.88;5008121;28;20406;-67
2022/05/23 11:44:53;;;;;;;3.65;0.88;;;;;;;25.19;30.13;99845.47;5008413;28;20452;-66
2022/05/23 11:47:24;;;;;;;3.97;1.13;;;;;;;25.20;30.44;99844.38;5008267;28;20053;-66
2022/05/23 11:49:59;;;;;;;2.58;1.40;;;;;;;25.22;30.42;99832.09;5008146;28;20018;-66
2022/05/23 11:52:40;;;;;;;4.45;1.10;;;;;;;25.28;30.33;99836.59;5013375;28;20041;-67
2022/05/23 11:55:12;;;;;;;4.57;1.05;;;;;;;25.35;30.48;99825.53;5057881;28;20045;-67
2022/05/23 11:57:41;;;;;;;4.68;1.02;;;;;;;25.34;30.39;99835.69;5025536;28;20025;-67
2022/05/23 12:00:36;;;;;;;6.30;1.55;;;;;;;25.31;30.70;99816.13;5026763;28;20026;-67
2022/05/23 12:03:12;;;;;;;2.50;0.88;;;;;;;25.42;30.70;99826.25;5026912;28;20106;-67
2022/05/23 12:05:38;;;;;;;2.15;0.80;;;;;;;25.51;30.57;99831.13;5027473;28;20467;-67
2022/05/23 12:08:25;;;;;;;4.13;1.50;;;;;;;25.54;30.41;99836.09;5023003;28;20128;-68
2022/05/23 12:10:58;;;;;;;1.42;0.93;;;;;;;25.58;30.33;99830.97;5007739;28;20370;-68
2022/05/23 12:13:30;;;;;;;2.17;0.80;;;;;;;25.65;30.60;99829.75;5007575;28;20033;-67
2022/05/23 12:15:58;;;;;;;3.72;1.20;;;;;;;25.65;30.46;99832.50;5020865;28;20030;-67
2022/05/23 12:18:23;;;;;;;4.55;0.80;;;;;;;25.68;30.12;99839.41;5007574;28;20029;-67
2022/05/23 12:20:58;;;;;;;3.80;1.10;;;;;;;25.70;30.35;99820.78;5007581;28;20025;-67
2022/05/23 12:23:36;;;;;;;9.00;1.38;;;;;;;25.65;30.34;99815.19;5007190;28;20030;-67
2022/05/23 12:26:26;;;;;;;4.63;1.10;;;;;;;25.65;30.17;99812.44;5007546;28;20486;-67
2022/05/23 12:28:58;;;;;;;3.78;0.98;;;;;;;25.77;30.20;99815.97;5007371;28;20044;-67
2022/05/23 12:31:28;;;;;;;3.10;1.10;;;;;;;25.73;30.19;99806.56;5017618;28;20496;-68
2022/05/23 12:34:02;;;;;;;4.25;1.00;;;;;;;25.67;30.25;99804.78;5007276;28;20530;-68
2022/05/23 12:36:31;;;;;;;5.43;1.27;;;;;;;25.65;30.30;99801.44;5005851;28;20030;-67
2022/05/23 12:39:02;;;;;;;5.97;1.30;;;;;;;25.64;30.27;99802.53;5007293;28;20033;-67
2022/05/23 12:41:56;;;;;;;5.28;1.30;;;;;;;25.67;30.36;99802.03;5007165;28;20508;-68
2022/05/23 12:44:55;;;;;;;3.17;1.48;;;;;;;25.73;30.46;99799.13;5007386;28;20041;-67